Terminal Aerodrome Forecast
Issued by NWS Lake Charles, LA

Home | Current Version | Previous Version | Text Only | Print | Product List | Glossary On
Versions: 1 2 3 4 5 6 7 8 9 10 11 12
000
FTUS44 KLCH 101700
TAFAEX
TAF
KAEX 101727Z 1018/1118 VRB04KT P6SM SCT035
     FM102100 VRB04KT P6SM VCTS SCT040CB
     FM110200 VRB03KT P6SM FEW250=

USA.gov is the U.S. government's official web portal to all federal, state and local government web resources and services.